Time;durP1;ratioP1;P1;durP2;ratioP2;P2;SDS_P1;SDS_P2;PMS_P1;PMS_P2;Temp;Humidity;BMP_temperature;BMP_pressure;BME280_temperature;BME280_humidity;BME280_pressure;Samples;Min_cycle;Max_cycle;Signal;HPM_P1;HPM_P2
2021/12/23 00:01:34;;;;;;;120.13;42.55;;;;;;;-5.74;72.01;99310.38;5112100;28;20460;-76
2021/12/23 00:04:00;;;;;;;149.40;49.35;;;;;;;-5.76;71.85;99307.03;5111798;28;20044;-77
2021/12/23 00:06:26;;;;;;;159.90;53.17;;;;;;;-5.75;71.53;99311.38;5111814;28;20041;-76
2021/12/23 00:08:51;;;;;;;152.73;50.88;;;;;;;-5.76;71.51;99296.34;5111725;28;20046;-77
2021/12/23 00:11:17;;;;;;;145.52;51.15;;;;;;;-5.74;71.82;99294.34;5111558;28;20024;-77
2021/12/23 00:13:50;;;;;;;137.93;48.22;;;;;;;-5.73;71.85;99309.38;5111021;28;20059;-77
2021/12/23 00:16:29;;;;;;;131.60;44.83;;;;;;;-5.73;71.71;99309.38;5111565;28;20384;-76
2021/12/23 00:19:01;;;;;;;133.52;46.75;;;;;;;-5.74;71.86;99299.69;5111116;28;20028;-76
2021/12/23 00:24:10;;;;;;;133.73;43.53;;;;;;;-5.79;71.67;99302.84;5111290;28;20031;-76
2021/12/23 00:26:35;;;;;;;132.90;47.28;;;;;;;-5.83;71.33;99302.34;5111051;28;20032;-77
2021/12/23 00:29:01;;;;;;;130.77;48.40;;;;;;;-5.82;71.55;99297.84;5111324;28;20047;-77
2021/12/23 00:31:26;;;;;;;130.18;45.38;;;;;;;-5.87;71.09;99294.84;5111173;28;20475;-77
2021/12/23 00:33:52;;;;;;;126.28;44.90;;;;;;;-5.88;71.08;99293.16;5092545;28;20055;-77
2021/12/23 00:36:17;;;;;;;124.18;43.88;;;;;;;-5.90;71.36;99284.47;5110932;28;20146;-77
2021/12/23 00:38:51;;;;;;;137.20;46.55;;;;;;;-5.89;71.33;99288.81;5111474;28;20047;-77
2021/12/23 00:41:19;;;;;;;128.73;43.85;;;;;;;-5.88;71.44;99287.81;5111470;28;20019;-76
2021/12/23 00:43:45;;;;;;;128.20;43.65;;;;;;;-5.88;71.29;99277.97;5092460;28;20096;-77
2021/12/23 00:46:10;;;;;;;137.35;49.90;;;;;;;-5.89;71.86;99276.31;5110729;28;20066;-77
2021/12/23 00:48:36;;;;;;;132.48;46.17;;;;;;;-5.88;71.12;99279.81;5110451;28;20487;-78
2021/12/23 00:51:03;;;;;;;133.95;47.92;;;;;;;-5.89;71.52;99286.16;5111365;28;20051;-77
2021/12/23 00:53:35;;;;;;;139.65;49.05;;;;;;;-5.90;71.33;99277.31;5109683;27;20035;-77
2021/12/23 00:56:01;;;;;;;125.70;43.55;;;;;;;-5.90;71.71;99282.66;5110522;28;20757;-77
2021/12/23 00:58:26;;;;;;;134.43;47.13;;;;;;;-5.90;71.25;99274.66;5111481;28;20475;-78
2021/12/23 01:00:52;;;;;;;137.73;50.40;;;;;;;-5.88;71.18;99275.31;5111783;28;20110;-78
2021/12/23 01:03:18;;;;;;;128.35;44.58;;;;;;;-5.87;71.83;99276.97;5110996;28;20052;-78
2021/12/23 01:05:44;;;;;;;126.57;45.95;;;;;;;-5.88;71.62;99266.44;5109376;28;20039;-77
2021/12/23 01:08:09;;;;;;;125.05;44.47;;;;;;;-5.88;71.68;99261.09;5110065;27;20080;-78
2021/12/23 01:10:36;;;;;;;129.13;44.92;;;;;;;-5.88;71.26;99267.31;5110830;28;20036;-78
2021/12/23 01:13:04;;;;;;;126.78;44.35;;;;;;;-5.89;71.69;99265.63;5109642;28;20106;-78
2021/12/23 01:18:13;;;;;;;122.90;44.25;;;;;;;-5.94;70.98;99256.47;5109577;28;20036;-78
2021/12/23 01:20:51;;;;;;;124.53;47.60;;;;;;;-5.94;71.52;99253.78;5110634;28;20023;-76
2021/12/23 01:23:18;;;;;;;127.18;45.50;;;;;;;-5.96;71.54;99245.94;5110188;28;20019;-76
2021/12/23 01:25:43;;;;;;;120.95;44.83;;;;;;;-5.97;71.17;99244.25;5110243;28;20031;-76
2021/12/23 01:28:09;;;;;;;121.00;44.85;;;;;;;-6.03;71.06;99242.31;5111258;28;20028;-76
2021/12/23 01:30:37;;;;;;;117.00;42.25;;;;;;;-6.08;71.29;99234.81;5093212;28;20446;-76
2021/12/23 01:33:04;;;;;;;128.07;44.15;;;;;;;-6.14;71.25;99238.16;5106532;28;20028;-78
2021/12/23 01:35:30;;;;;;;118.03;43.03;;;;;;;-6.28;70.54;99235.16;5111296;28;20023;-78
2021/12/23 01:37:56;;;;;;;122.40;42.63;;;;;;;-6.43;71.01;99236.84;5110917;28;20120;-78
2021/12/23 01:40:24;;;;;;;118.75;41.75;;;;;;;-6.54;71.16;99229.16;5111372;28;20059;-77
2021/12/23 01:42:50;;;;;;;120.18;41.30;;;;;;;-6.64;70.64;99229.31;5110095;28;20023;-76
2021/12/23 01:45:19;;;;;;;108.43;37.45;;;;;;;-6.72;70.72;99227.47;5112246;28;20081;-77
2021/12/23 01:47:46;;;;;;;139.95;47.53;;;;;;;-6.83;70.92;99222.47;5114820;28;20066;-78
2021/12/23 01:50:15;;;;;;;92.60;32.97;;;;;;;-6.91;71.49;99212.59;5113375;28;20024;-77
2021/12/23 01:52:40;;;;;;;111.03;38.55;;;;;;;-6.96;71.75;99204.28;5115132;28;20035;-77
2021/12/23 01:55:08;;;;;;;93.65;34.25;;;;;;;-6.97;71.92;99208.78;5115686;28;20418;-78
2021/12/23 01:57:33;;;;;;;94.80;33.72;;;;;;;-6.98;72.07;99199.09;5114827;28;20031;-78
2021/12/23 02:00:01;;;;;;;96.45;35.00;;;;;;;-6.97;71.53;99203.44;5114778;27;20081;-78
2021/12/23 02:02:27;;;;;;;101.90;35.75;;;;;;;-7.00;71.79;99195.75;5096797;28;20264;-76
2021/12/23 02:04:53;;;;;;;82.95;32.42;;;;;;;-6.95;71.76;99211.28;5114606;28;20051;-76
2021/12/23 02:07:19;;;;;;;88.97;33.28;;;;;;;-6.94;72.28;99203.09;5114828;28;20070;-77
2021/12/23 02:09:45;;;;;;;86.68;32.40;;;;;;;-6.94;72.01;99200.44;5114944;28;20067;-77
2021/12/23 02:12:11;;;;;;;91.22;34.35;;;;;;;-6.94;72.04;99199.63;5090011;28;20028;-77
2021/12/23 02:14:37;;;;;;;77.57;27.63;;;;;;;-6.92;72.00;99200.25;5113075;28;20461;-76
2021/12/23 02:17:02;;;;;;;83.65;33.22;;;;;;;-6.92;72.10;99198.44;5113895;28;20034;-77
2021/12/23 02:19:28;;;;;;;83.80;31.90;;;;;;;-6.89;71.98;99197.28;5113438;28;20066;-75
2021/12/23 02:21:53;;;;;;;90.47;33.70;;;;;;;-6.88;72.05;99189.13;5111693;27;20020;-78
2021/12/23 02:24:19;;;;;;;84.60;31.40;;;;;;;-6.83;72.43;99187.78;5113585;28;20407;-76
2021/12/23 02:26:44;;;;;;;73.28;29.55;;;;;;;-6.73;72.35;99178.63;5112979;28;20437;-78
2021/12/23 02:29:10;;;;;;;75.53;27.90;;;;;;;-6.68;72.51;99185.28;5113780;28;20046;-81
2021/12/23 02:31:36;;;;;;;86.63;30.65;;;;;;;-6.69;72.14;99181.78;5095533;28;20055;-77
2021/12/23 02:34:02;;;;;;;78.82;32.22;;;;;;;-6.68;72.51;99179.97;5112637;28;20399;-78
2021/12/23 02:36:30;;;;;;;88.03;34.53;;;;;;;-6.73;72.05;99189.28;5112161;28;20011;-76
2021/12/23 02:38:59;;;;;;;87.55;34.05;;;;;;;-6.75;71.81;99190.47;5111821;28;20080;-76
2021/12/23 02:41:24;;;;;;;75.03;28.58;;;;;;;-6.80;72.29;99182.94;5112179;28;20023;-76
2021/12/23 02:43:50;;;;;;;82.95;29.38;;;;;;;-6.83;72.30;99175.28;5111914;28;20061;-76
2021/12/23 02:46:19;;;;;;;75.50;27.92;;;;;;;-6.89;71.88;99174.13;5112387;28;20016;-76
2021/12/23 02:48:46;;;;;;;73.38;27.52;;;;;;;-6.91;71.58;99165.44;5112063;28;20016;-76
2021/12/23 02:51:13;;;;;;;85.10;29.90;;;;;;;-6.95;71.68;99160.63;5112933;28;20016;-76
2021/12/23 02:53:40;;;;;;;84.57;33.63;;;;;;;-6.92;72.15;99152.25;5112589;28;20024;-76
2021/12/23 02:56:10;;;;;;;79.43;31.42;;;;;;;-6.82;71.95;99146.78;5113012;28;20024;-75
2021/12/23 02:58:36;;;;;;;;;;;;;;;-6.76;72.40;99136.28;5113081;28;20475;-75
2021/12/23 03:01:05;;;;;;;79.45;32.28;;;;;;;-6.70;71.96;99131.28;5094362;28;19965;-75
2021/12/23 03:03:30;;;;;;;84.43;29.58;;;;;;;-6.61;72.45;99124.94;5112552;28;20044;-76
2021/12/23 03:05:57;;;;;;;84.72;32.78;;;;;;;-6.55;72.19;99120.75;5112595;28;20023;-76
2021/12/23 03:08:33;;;;;;;83.70;30.48;;;;;;;-6.52;72.00;99113.22;5112503;28;20053;-76
2021/12/23 03:10:59;;;;;;;76.18;26.88;;;;;;;-6.46;72.25;99101.88;5112105;28;20550;-76
2021/12/23 03:13:25;;;;;;;82.55;31.88;;;;;;;-6.44;72.05;99104.38;5111715;28;20102;-75
2021/12/23 03:15:51;;;;;;;79.00;30.02;;;;;;;-6.45;72.11;99103.53;5112614;28;20019;-75
2021/12/23 03:18:16;;;;;;;79.22;29.70;;;;;;;-6.50;71.64;99102.38;5112364;28;20490;-76
2021/12/23 03:20:42;;;;;;;73.20;29.38;;;;;;;-6.51;72.11;99095.38;5111980;28;20472;-76
2021/12/23 03:23:07;;;;;;;55.25;22.70;;;;;;;-6.50;72.17;99089.03;5094090;28;20012;-76
2021/12/23 03:25:32;;;;;;;71.07;25.27;;;;;;;-6.53;71.71;99098.25;5112393;28;20076;-76
2021/12/23 03:27:58;;;;;;;56.42;21.33;;;;;;;-6.59;71.76;99088.25;5108319;28;20020;-76
2021/12/23 03:30:23;;;;;;;56.28;25.05;;;;;;;-6.61;71.78;99084.91;5111970;28;20023;-76
2021/12/23 03:32:49;;;;;;;61.15;24.80;;;;;;;-6.64;71.41;99091.41;5112067;28;20024;-76
2021/12/23 03:35:16;;;;;;;58.58;24.10;;;;;;;-6.62;71.59;99092.06;5112238;28;20057;-76
2021/12/23 03:37:41;;;;;;;47.63;20.77;;;;;;;-6.59;71.98;99094.38;5111716;28;20027;-76
2021/12/23 03:40:07;;;;;;;59.42;25.52;;;;;;;-6.54;71.74;99095.72;5111858;28;20129;-76
2021/12/23 03:42:33;;;;;;;56.50;22.38;;;;;;;-6.51;71.46;99090.06;5091103;28;20069;-76
2021/12/23 03:44:58;;;;;;;57.95;22.13;;;;;;;-6.56;71.84;99095.91;5111850;28;20019;-78
2021/12/23 03:47:24;;;;;;;61.33;28.02;;;;;;;-6.54;71.51;99098.38;5111443;28;20028;-76
2021/12/23 03:49:49;;;;;;;60.90;26.65;;;;;;;-6.62;71.68;99094.72;5111503;28;20024;-76
2021/12/23 03:52:14;;;;;;;60.45;24.17;;;;;;;-6.68;71.78;99097.25;5111639;28;20483;-77
2021/12/23 03:54:40;;;;;;;59.72;23.00;;;;;;;-6.69;71.96;99092.91;5111487;28;20363;-78
2021/12/23 03:57:06;;;;;;;57.13;22.65;;;;;;;-6.70;71.47;99083.25;5111336;28;20480;-78
2021/12/23 03:59:32;;;;;;;56.60;21.30;;;;;;;-6.72;71.90;99088.72;5111360;28;20073;-78
2021/12/23 04:01:58;;;;;;;68.85;29.70;;;;;;;-6.70;71.22;99083.25;5092999;28;20098;-78
2021/12/23 04:04:23;;;;;;;58.80;23.67;;;;;;;-6.72;71.30;99086.06;5111135;28;20031;-78
2021/12/23 04:06:49;;;;;;;64.35;23.65;;;;;;;-6.76;71.41;99087.44;5092594;28;20524;-78
2021/12/23 04:09:14;;;;;;;57.40;24.42;;;;;;;-6.83;71.14;99081.91;5110994;28;20019;-78
2021/12/23 04:11:40;;;;;;;55.08;23.25;;;;;;;-6.83;71.54;99075.75;5111235;28;20424;-78
2021/12/23 04:14:05;;;;;;;49.25;20.65;;;;;;;-6.82;71.66;99072.91;5111375;28;20034;-78
2021/12/23 04:16:30;;;;;;;58.03;22.52;;;;;;;-6.85;71.77;99070.59;5111416;28;20012;-79
2021/12/23 04:18:56;;;;;;;52.22;24.75;;;;;;;-6.80;71.78;99067.44;5092698;28;20023;-78
2021/12/23 04:21:22;;;;;;;52.50;21.25;;;;;;;-6.72;72.07;99059.38;5093050;28;20519;-78
2021/12/23 04:23:47;;;;;;;50.17;21.70;;;;;;;-6.66;71.79;99061.38;5092282;28;20123;-77
2021/12/23 04:26:13;;;;;;;56.55;24.13;;;;;;;-6.55;72.30;99054.88;5108774;28;20072;-77
2021/12/23 04:28:46;;;;;;;53.65;24.48;;;;;;;-6.48;71.74;99055.00;5110705;28;20028;-77
2021/12/23 04:31:17;;;;;;;51.47;21.35;;;;;;;-6.44;71.53;99040.31;5111020;28;20245;-78
2021/12/23 04:33:44;;;;;;;50.33;21.20;;;;;;;-6.40;72.00;99043.47;5110600;28;20023;-78
2021/12/23 04:36:10;;;;;;;57.40;24.90;;;;;;;-6.39;71.72;99043.31;5110907;28;20024;-74
2021/12/23 04:38:37;;;;;;;51.45;21.85;;;;;;;-6.41;72.02;99031.97;5110898;28;20016;-75
2021/12/23 04:41:03;;;;;;;53.67;22.30;;;;;;;-6.40;71.86;99038.97;5110470;28;20485;-75
2021/12/23 04:43:28;;;;;;;52.38;19.90;;;;;;;-6.42;71.34;99035.66;5110402;28;20085;-76
2021/12/23 04:45:54;;;;;;;42.97;16.50;;;;;;;-6.49;71.40;99030.16;5092042;28;20080;-75
2021/12/23 04:48:19;;;;;;;43.50;18.00;;;;;;;-6.56;71.05;99023.84;5091968;28;20024;-75
2021/12/23 04:50:44;;;;;;;45.25;18.08;;;;;;;-6.60;71.06;99020.69;5091990;28;20023;-75
2021/12/23 04:53:10;;;;;;;37.60;17.95;;;;;;;-6.66;71.42;99020.53;5091733;28;20092;-75
2021/12/23 04:55:35;;;;;;;45.00;22.75;;;;;;;-6.71;70.70;99013.03;5110884;28;20020;-75
2021/12/23 04:58:01;;;;;;;37.25;17.50;;;;;;;-6.73;71.33;99004.41;5110539;28;20027;-75
2021/12/23 05:00:26;;;;;;;30.42;15.60;;;;;;;-6.74;71.26;99003.56;5110597;28;20523;-75
2021/12/23 05:02:51;;;;;;;44.28;18.27;;;;;;;-6.75;71.46;99011.75;5109886;28;20028;-76
2021/12/23 05:05:17;;;;;;;42.88;20.17;;;;;;;-6.71;71.35;98997.03;5110709;28;20016;-76
2021/12/23 05:07:43;;;;;;;49.85;22.15;;;;;;;-6.68;71.51;99004.69;5110341;28;20748;-76
2021/12/23 05:10:11;;;;;;;54.90;20.85;;;;;;;-6.68;71.16;98990.53;5110032;28;20110;-75
2021/12/23 05:12:42;;;;;;;49.63;18.55;;;;;;;-6.63;71.08;98999.69;5109932;28;20027;-75
2021/12/23 05:15:10;;;;;;;48.20;21.30;;;;;;;-6.66;71.29;98994.69;5110648;28;20066;-75
2021/12/23 05:17:35;;;;;;;50.72;21.02;;;;;;;-6.61;71.47;98988.84;5110166;28;20491;-75
2021/12/23 05:20:01;;;;;;;43.42;20.85;;;;;;;-6.58;71.40;98978.66;5109359;28;20028;-75
2021/12/23 05:22:26;;;;;;;38.65;17.52;;;;;;;-6.52;71.60;98978.97;5109647;28;20023;-75
2021/12/23 05:24:52;;;;;;;44.47;20.10;;;;;;;-6.51;70.91;98976.13;5103784;28;20057;-75
2021/12/23 05:27:17;;;;;;;45.95;17.80;;;;;;;-6.52;71.36;98982.47;5090987;28;20377;-75
2021/12/23 05:29:43;;;;;;;58.28;22.80;;;;;;;-6.54;71.42;98987.16;5109578;28;20034;-76
2021/12/23 05:32:08;;;;;;;69.40;23.92;;;;;;;-6.56;71.12;98980.31;5109703;28;20441;-75
2021/12/23 05:34:34;;;;;;;80.10;28.17;;;;;;;-6.54;70.75;98972.97;5107804;28;20020;-76
2021/12/23 05:36:59;;;;;;;60.55;23.40;;;;;;;-6.47;71.29;98979.28;5109557;28;20535;-76
2021/12/23 05:39:25;;;;;;;56.53;20.80;;;;;;;-6.37;71.35;98973.72;5093076;28;20031;-76
2021/12/23 05:41:50;;;;;;;55.83;22.70;;;;;;;-6.36;70.88;98962.06;5113358;28;20073;-76
2021/12/23 05:44:16;;;;;;;56.97;24.52;;;;;;;-6.36;71.44;98959.38;5113012;28;20015;-76
2021/12/23 05:46:41;;;;;;;58.30;28.27;;;;;;;-6.34;70.91;98966.22;5112953;28;20031;-76
2021/12/23 05:49:07;;;;;;;47.50;23.95;;;;;;;-6.36;70.99;98968.22;5113106;28;20024;-77
2021/12/23 05:51:32;;;;;;;40.90;21.40;;;;;;;-6.42;71.21;98963.59;5109666;28;20302;-77
2021/12/23 05:53:57;;;;;;;42.42;18.88;;;;;;;-6.40;71.29;98958.91;5109516;28;20019;-76
2021/12/23 05:56:23;;;;;;;35.53;15.27;;;;;;;-6.34;71.09;98952.88;5111141;28;20028;-77
2021/12/23 05:58:48;;;;;;;38.97;16.63;;;;;;;-6.30;70.84;98946.16;5110935;28;20452;-76
2021/12/23 06:01:14;;;;;;;36.85;15.75;;;;;;;-6.31;70.98;98941.81;5111099;28;20495;-76
2021/12/23 06:03:40;;;;;;;39.88;18.92;;;;;;;-6.28;70.99;98946.00;5110227;28;20044;-76
2021/12/23 06:06:05;;;;;;;55.15;26.13;;;;;;;-6.29;70.80;98941.66;5111216;28;20035;-76
2021/12/23 06:08:31;;;;;;;42.65;18.45;;;;;;;-6.22;71.18;98936.44;5111224;28;20484;-75
2021/12/23 06:10:56;;;;;;;39.80;17.35;;;;;;;-6.21;71.23;98930.94;5092768;28;20491;-77
2021/12/23 06:13:22;;;;;;;38.88;17.92;;;;;;;-6.29;70.83;98931.81;5092573;28;20031;-76
2021/12/23 06:15:47;;;;;;;52.40;18.77;;;;;;;-6.31;70.59;98930.34;5111339;28;20052;-75
2021/12/23 06:18:13;;;;;;;70.07;23.15;;;;;;;-6.32;71.29;98937.53;5110817;28;20162;-76
2021/12/23 06:20:38;;;;;;;86.00;31.42;;;;;;;-6.33;70.71;98927.84;5110598;28;20103;-76
2021/12/23 06:23:05;;;;;;;52.63;20.40;;;;;;;-6.34;71.13;98926.19;5110385;28;20031;-77
2021/12/23 06:25:31;;;;;;;48.33;19.90;;;;;;;-6.35;71.10;98924.53;5110481;28;20127;-76
2021/12/23 06:27:56;;;;;;;61.35;22.25;;;;;;;-6.36;71.04;98919.34;5110499;28;20106;-76
2021/12/23 06:30:22;;;;;;;56.10;21.80;;;;;;;-6.29;71.19;98913.13;5110623;28;20430;-77
2021/12/23 06:32:50;;;;;;;48.35;19.13;;;;;;;-6.24;70.73;98915.28;5095259;28;20073;-77
2021/12/23 06:35:16;;;;;;;50.67;18.83;;;;;;;-6.21;70.74;98908.75;5114569;28;20055;-76
2021/12/23 06:37:42;;;;;;;48.33;19.63;;;;;;;-6.13;71.45;98914.88;5114204;28;20066;-76
2021/12/23 06:40:08;;;;;;;49.28;20.38;;;;;;;-6.08;71.24;98918.84;5114527;28;20055;-77
2021/12/23 06:42:34;;;;;;;50.65;20.35;;;;;;;-6.11;70.88;98905.88;5114339;28;20027;-76
2021/12/23 06:45:00;;;;;;;46.33;20.63;;;;;;;-6.17;70.80;98910.91;5114683;28;20364;-77
2021/12/23 06:47:25;;;;;;;53.92;23.80;;;;;;;-6.22;70.57;98905.25;5113801;28;20039;-77
2021/12/23 06:49:51;;;;;;;52.03;22.65;;;;;;;-6.19;71.01;98899.56;5114829;28;20034;-76
2021/12/23 06:52:16;;;;;;;38.88;16.25;;;;;;;-6.15;71.02;98905.38;5114559;28;20548;-77
2021/12/23 06:54:46;;;;;;;46.70;19.77;;;;;;;-6.15;70.38;98892.03;5095949;28;20023;-78
2021/12/23 06:57:12;;;;;;;39.55;16.05;;;;;;;-6.13;70.38;98908.69;5114381;28;20016;-76
2021/12/23 06:59:38;;;;;;;47.92;19.00;;;;;;;-6.18;70.94;98901.22;5114323;28;20024;-77
2021/12/23 07:02:04;;;;;;;47.38;18.95;;;;;;;-6.16;70.45;98903.72;5113507;28;20030;-77
2021/12/23 07:04:32;;;;;;;53.67;22.42;;;;;;;-6.16;70.44;98893.88;5112908;28;20051;-77
2021/12/23 07:07:09;;;;;;;53.80;22.88;;;;;;;-6.18;70.56;98893.22;5113496;28;20027;-76
2021/12/23 07:09:40;;;;;;;93.80;40.20;;;;;;;-6.13;70.64;98884.66;5113829;28;20045;-77
2021/12/23 07:12:08;;;;;;;86.90;36.47;;;;;;;-6.03;70.46;98901.28;5114126;28;20034;-77
2021/12/23 07:14:34;;;;;;;118.07;45.67;;;;;;;-5.99;70.62;98886.53;5113615;28;20058;-77
2021/12/23 07:16:59;;;;;;;97.88;35.70;;;;;;;-5.94;70.59;98883.31;5113919;28;20035;-77
2021/12/23 07:19:25;;;;;;;67.35;26.73;;;;;;;-5.88;70.49;98887.09;5095812;28;20034;-77
2021/12/23 07:21:50;;;;;;;123.75;39.92;;;;;;;-5.86;70.84;98885.94;5095484;28;20023;-76
2021/12/23 07:24:16;;;;;;;64.20;24.77;;;;;;;-5.81;70.62;98882.72;5113487;28;20047;-77
2021/12/23 07:26:41;;;;;;;68.30;26.13;;;;;;;-5.82;70.54;98883.72;5113579;28;20047;-76
2021/12/23 07:29:07;;;;;;;75.68;26.38;;;;;;;-5.79;70.70;98872.69;5114151;28;20034;-77
2021/12/23 07:31:32;;;;;;;52.88;19.17;;;;;;;-5.70;70.29;98878.78;5113885;28;20028;-77
2021/12/23 07:33:57;;;;;;;47.13;18.67;;;;;;;-5.70;70.37;98884.97;5113433;28;20043;-77
2021/12/23 07:36:24;;;;;;;67.95;21.48;;;;;;;-5.69;70.65;98883.97;5095662;28;20072;-77
2021/12/23 07:38:50;;;;;;;59.03;19.70;;;;;;;-5.61;70.49;98887.56;5113721;28;20344;-77
2021/12/23 07:41:16;;;;;;;83.47;25.63;;;;;;;-5.60;70.16;98889.25;5113780;28;20519;-77
2021/12/23 07:43:55;;;;;;;69.55;26.35;;;;;;;-5.51;70.49;98889.97;5112267;28;20061;-77
2021/12/23 07:46:20;;;;;;;67.63;24.60;;;;;;;-5.44;70.67;98888.25;5113652;28;20055;-77
2021/12/23 07:48:46;;;;;;;55.75;23.23;;;;;;;-5.38;70.65;98882.19;5113194;28;20089;-77
2021/12/23 07:51:11;;;;;;;53.63;21.45;;;;;;;-5.32;70.57;98875.25;5113515;28;20020;-77
2021/12/23 07:53:37;;;;;;;45.33;19.33;;;;;;;-5.28;70.20;98879.22;5112806;28;20027;-77
2021/12/23 07:56:03;;;;;;;54.55;22.88;;;;;;;-5.20;70.22;98871.13;5113583;28;20028;-77
2021/12/23 07:58:28;;;;;;;62.88;22.65;;;;;;;-5.11;70.30;98875.38;5113238;28;20698;-76
2021/12/23 08:00:53;;;;;;;106.60;35.70;;;;;;;-5.08;70.22;98879.53;5113477;28;20023;-76
2021/12/23 08:03:19;;;;;;;189.00;65.32;;;;;;;-5.00;70.69;98878.59;5112725;28;20519;-77
2021/12/23 08:05:44;;;;;;;188.05;52.60;;;;;;;-4.97;70.24;98873.72;5112536;28;20036;-77
2021/12/23 08:08:10;;;;;;;156.77;45.03;;;;;;;-4.85;70.66;98862.53;5112548;28;20024;-77
2021/12/23 08:10:35;;;;;;;59.47;22.55;;;;;;;-4.72;70.33;98865.38;5112004;28;20039;-77
2021/12/23 08:13:01;;;;;;;62.95;22.65;;;;;;;-4.64;70.49;98853.72;5111603;28;20028;-77
2021/12/23 08:15:27;;;;;;;49.08;19.42;;;;;;;-4.55;70.39;98851.78;5093712;28;20023;-77
2021/12/23 08:17:52;;;;;;;47.38;20.30;;;;;;;-4.45;70.06;98848.81;5111738;28;20020;-76
2021/12/23 08:20:17;;;;;;;52.85;22.92;;;;;;;-4.36;70.50;98845.81;5111600;28;20043;-72
2021/12/23 08:22:43;;;;;;;45.72;19.77;;;;;;;-4.31;70.10;98837.22;5107966;28;20387;-73
2021/12/23 08:25:11;;;;;;;39.15;17.75;;;;;;;-4.28;69.97;98834.13;5110080;28;20102;-69
2021/12/23 08:27:38;;;;;;;48.85;21.20;;;;;;;-4.27;69.97;98838.47;5111043;28;20035;-69
2021/12/23 08:30:05;;;;;;;52.10;20.13;;;;;;;-4.21;69.77;98829.69;5111276;28;20034;-72
2021/12/23 08:32:31;;;;;;;55.88;23.50;;;;;;;-4.14;69.65;98832.44;5111078;28;20028;-72
2021/12/23 08:34:56;;;;;;;68.80;27.02;;;;;;;-3.99;69.72;98823.47;5110371;28;20024;-72
2021/12/23 08:37:22;;;;;;;79.38;26.85;;;;;;;-3.87;69.67;98813.09;5111030;28;20051;-72
2021/12/23 08:39:48;;;;;;;94.80;30.75;;;;;;;-3.85;69.35;98813.69;5110648;28;20391;-72
2021/12/23 08:42:14;;;;;;;82.80;27.90;;;;;;;-3.81;69.53;98806.94;5110377;28;20054;-72
2021/12/23 08:44:40;;;;;;;73.43;26.40;;;;;;;-3.71;69.38;98794.03;5110531;28;20468;-72
2021/12/23 08:47:06;;;;;;;94.03;30.27;;;;;;;-3.56;69.25;98791.25;5110563;28;20032;-71
2021/12/23 08:49:32;;;;;;;64.65;24.33;;;;;;;-3.48;69.22;98788.41;5111126;28;20031;-72
2021/12/23 08:51:58;;;;;;;54.83;22.00;;;;;;;-3.49;69.01;98784.06;5111532;28;20380;-73
2021/12/23 08:54:23;;;;;;;54.35;23.25;;;;;;;-3.42;69.23;98789.47;5111404;28;20027;-73
2021/12/23 08:56:48;;;;;;;53.60;22.05;;;;;;;-3.47;67.92;98773.97;5111415;28;20468;-73
2021/12/23 08:59:14;;;;;;;63.22;25.98;;;;;;;-3.50;68.70;98778.91;5093442;28;20023;-72
2021/12/23 09:01:41;;;;;;;61.38;25.23;;;;;;;-3.42;68.79;98781.41;5108575;28;20032;-73
2021/12/23 09:04:06;;;;;;;63.33;26.48;;;;;;;-3.35;68.96;98771.56;5111993;28;20044;-73
2021/12/23 09:06:32;;;;;;;53.20;24.05;;;;;;;-3.30;68.56;98773.66;5111763;28;20494;-73
2021/12/23 09:08:58;;;;;;;59.88;26.10;;;;;;;-3.30;68.76;98776.34;5111535;28;20472;-72
2021/12/23 09:11:23;;;;;;;48.25;21.52;;;;;;;-3.30;68.29;98774.47;5111997;28;20030;-73
2021/12/23 09:13:49;;;;;;;35.90;15.57;;;;;;;-3.31;68.22;98785.44;5111347;28;20027;-78
2021/12/23 09:16:15;;;;;;;39.50;19.05;;;;;;;-3.32;68.25;98776.53;5111108;28;20395;-78
2021/12/23 09:18:40;;;;;;;38.83;16.92;;;;;;;-3.27;68.23;98769.75;5111539;28;20019;-79
2021/12/23 09:21:06;;;;;;;39.85;17.83;;;;;;;-3.22;68.18;98761.94;5111788;28;20080;-79
2021/12/23 09:23:32;;;;;;;39.72;15.98;;;;;;;-3.21;68.41;98756.34;5111241;28;20032;-79
2021/12/23 09:25:57;;;;;;;37.47;17.70;;;;;;;-3.24;67.92;98747.91;5111461;28;20069;-79
2021/12/23 09:33:51;;;;;;;44.42;20.85;;;;;;;-3.05;68.24;98749.81;5105049;28;20039;-78
2021/12/23 09:36:17;;;;;;;37.28;15.43;;;;;;;-2.93;68.33;98734.00;5107627;28;20024;-77
2021/12/23 09:38:43;;;;;;;53.45;23.67;;;;;;;-2.92;68.16;98721.38;5109911;28;20027;-77
2021/12/23 09:41:18;;;;;;;58.17;24.27;;;;;;;-2.82;68.40;98719.16;5110246;28;20502;-76
2021/12/23 09:43:45;;;;;;;53.35;27.15;;;;;;;-2.76;68.23;98718.34;5091356;28;20390;-77
2021/12/23 09:46:13;;;;;;;62.92;26.63;;;;;;;-2.74;67.93;98710.91;5109902;28;20027;-78
2021/12/23 09:48:42;;;;;;;69.78;29.25;;;;;;;-2.67;68.08;98702.03;5110277;28;20042;-80
2021/12/23 09:51:09;;;;;;;75.05;29.92;;;;;;;-2.59;68.02;98699.97;5110050;28;20023;-77
2021/12/23 09:53:39;;;;;;;55.97;24.40;;;;;;;-2.53;68.19;98692.16;5090805;28;20475;-77
2021/12/23 09:56:05;;;;;;;61.13;24.80;;;;;;;-2.52;67.72;98686.56;5110248;28;20023;-78
2021/12/23 09:58:31;;;;;;;62.95;23.08;;;;;;;-2.48;67.68;98682.44;5104965;28;20044;-78
2021/12/23 10:00:59;;;;;;;64.97;23.45;;;;;;;-2.41;67.47;98679.72;5091425;28;20046;-78
2021/12/23 10:03:25;;;;;;;56.55;21.23;;;;;;;-2.43;67.38;98676.44;5109434;28;20062;-80
2021/12/23 10:05:51;;;;;;;46.47;17.48;;;;;;;-2.47;67.35;98670.66;5109438;28;20035;-78
2021/12/23 10:08:17;;;;;;;60.55;24.73;;;;;;;-2.47;67.19;98657.22;5112988;28;20031;-75
2021/12/23 10:33:08;;;;;;;79.80;25.48;;;;;;;-2.43;67.14;98585.09;5114204;28;20095;-73
2021/12/23 10:38:30;;;;;;;76.53;26.30;;;;;;;-2.49;67.23;98572.53;5113482;28;20038;-75
2021/12/23 10:41:07;;;;;;;59.65;24.48;;;;;;;-2.42;67.40;98571.47;5113846;28;20035;-74
2021/12/23 10:43:38;;;;;;;86.75;30.67;;;;;;;-2.44;67.40;98568.16;5113041;28;20080;-77
2021/12/23 10:46:17;;;;;;;65.90;25.42;;;;;;;-2.47;66.99;98554.34;5113555;28;20036;-80
2021/12/23 10:49:01;;;;;;;97.97;33.45;;;;;;;-2.51;67.32;98542.38;5113178;28;20031;-80
2021/12/23 10:51:26;;;;;;;64.07;25.13;;;;;;;-2.48;67.17;98536.59;5113275;28;20024;-81
2021/12/23 10:54:17;;;;;;;64.93;24.48;;;;;;;-2.51;67.12;98526.25;5111262;28;20427;-81
2021/12/23 10:59:29;;;;;;;54.65;24.20;;;;;;;-2.60;66.96;98525.63;5108061;28;20038;-78
2021/12/23 11:02:26;;;;;;;50.47;21.80;;;;;;;-2.58;67.81;98513.66;5094886;28;20023;-73
2021/12/23 11:05:04;;;;;;;50.35;23.10;;;;;;;-2.52;67.52;98514.69;5112800;28;20047;-73
2021/12/23 11:07:56;;;;;;;48.33;19.58;;;;;;;-2.44;67.48;98509.09;5111680;28;20484;-77
2021/12/23 11:11:05;;;;;;;51.30;24.60;;;;;;;-2.33;67.94;98493.34;5106169;27;20059;-74
2021/12/23 11:38:22;;;;;;;54.05;26.48;;;;;;;-2.05;67.49;98427.72;5111639;27;20123;-75
2021/12/23 11:45:45;;;;;;;62.03;28.45;;;;;;;-1.96;67.37;98421.06;5111153;28;20034;-76
2021/12/23 11:48:13;;;;;;;48.60;22.13;;;;;;;-1.95;67.62;98415.44;5110868;28;20030;-73
2021/12/23 11:50:53;;;;;;;57.88;25.10;;;;;;;-2.02;66.94;98401.22;5092919;28;20106;-75
2021/12/23 11:53:20;;;;;;;56.33;24.27;;;;;;;-2.03;68.40;98409.50;5110544;28;20032;-75
2021/12/23 11:55:45;;;;;;;52.53;24.58;;;;;;;-1.99;67.37;98392.72;5111786;28;20030;-74
2021/12/23 11:58:13;;;;;;;47.00;23.17;;;;;;;-1.93;67.80;98383.00;5111527;28;20023;-76
2021/12/23 12:00:42;;;;;;;53.03;26.80;;;;;;;-1.92;67.19;98376.56;5111814;28;20122;-76
2021/12/23 12:03:12;;;;;;;50.03;23.42;;;;;;;-1.96;67.67;98381.53;5112880;28;20071;-76
2021/12/23 12:05:39;;;;;;;51.08;22.98;;;;;;;-1.92;67.65;98376.56;5113272;28;20110;-76
2021/12/23 12:08:17;;;;;;;47.42;21.45;;;;;;;-1.89;67.58;98376.16;5093132;28;20468;-75
2021/12/23 12:10:44;;;;;;;55.45;24.98;;;;;;;-1.87;67.48;98382.13;5111806;27;20601;-76
2021/12/23 12:13:13;;;;;;;57.70;25.45;;;;;;;-1.83;67.74;98385.19;5110323;27;20659;-73
2021/12/23 12:15:38;;;;;;;56.55;24.38;;;;;;;-1.77;67.96;98386.19;5105452;28;20027;-78
2021/12/23 12:18:11;;;;;;;45.78;20.50;;;;;;;-1.72;68.04;98372.91;5104799;27;20031;-75
2021/12/23 12:21:00;;;;;;;49.83;22.48;;;;;;;-1.67;68.12;98376.59;5090772;28;20043;-76
2021/12/23 12:23:32;;;;;;;53.75;23.00;;;;;;;-1.61;67.83;98366.00;5109924;28;20028;-77
2021/12/23 12:26:12;;;;;;;55.67;23.58;;;;;;;-1.59;67.63;98367.44;5111136;27;20034;-74